createdAt,value
2016-02-25T00:00:33.492Z,4.96
2016-02-25T00:01:33.434Z,5.04
2016-02-25T00:02:33.467Z,5.04
2016-02-25T00:03:33.344Z,4.96
2016-02-25T00:04:33.285Z,5
2016-02-25T00:05:33.194Z,5.02
2016-02-25T00:06:33.228Z,5.05
2016-02-25T00:07:33.105Z,5.02
2016-02-25T00:08:33.045Z,4.96
2016-02-25T00:09:33.001Z,5.08
2016-02-25T00:10:32.988Z,5.11
2016-02-25T00:11:32.898Z,4.99
2016-02-25T00:12:32.806Z,5.04
2016-02-25T00:13:32.777Z,5.05
2016-02-25T00:14:32.765Z,4.99
2016-02-25T00:15:32.658Z,4.92
2016-02-25T00:16:32.630Z,4.97
2016-02-25T00:17:32.570Z,4.97
2016-02-25T00:18:32.510Z,5.05
2016-02-25T00:19:32.419Z,4.89
2016-02-25T00:20:32.359Z,4.99
2016-02-25T00:21:32.331Z,4.97
2016-02-25T00:22:32.240Z,4.84
2016-02-25T00:23:32.195Z,4.87
2016-02-25T00:24:32.135Z,4.77
2016-02-25T00:25:32.076Z,4.89
2016-02-25T00:26:32.016Z,4.89
2016-02-25T00:27:31.941Z,4.87
2016-02-25T00:28:31.912Z,4.84
2016-02-25T00:29:31.851Z,4.84
2016-02-25T00:30:31.761Z,4.89
2016-02-25T00:31:31.717Z,4.87
2016-02-25T00:32:31.688Z,4.77
2016-02-25T00:33:31.597Z,4.8
2016-02-25T00:34:31.553Z,4.84
2016-02-25T00:35:31.478Z,4.8
2016-02-25T00:36:31.464Z,4.82
2016-02-25T00:37:31.374Z,4.87
2016-02-25T00:38:31.329Z,4.77
2016-02-25T00:39:31.286Z,4.96
2016-02-25T00:40:31.209Z,4.96
2016-02-25T00:41:31.150Z,4.87
2016-02-25T00:42:31.075Z,4.8
2016-02-25T00:43:31.046Z,4.82
2016-02-25T00:44:30.970Z,4.73
2016-02-25T00:45:30.911Z,4.82
2016-02-25T00:46:30.866Z,4.92
2016-02-25T00:47:30.808Z,4.92
2016-02-25T00:48:30.747Z,4.9
2016-02-25T00:49:30.703Z,4.84
2016-02-25T00:50:30.643Z,4.78
2016-02-25T00:51:30.552Z,4.74
2016-02-25T00:52:30.492Z,4.75
2016-02-25T00:53:30.448Z,4.74
2016-02-25T00:54:30.388Z,4.82
2016-02-25T00:55:30.343Z,4.8
2016-02-25T00:56:30.127Z,4.8
2016-02-25T00:57:30.193Z,4.8
2016-02-25T00:58:30.133Z,4.8
2016-02-25T00:59:30.151Z,4.74
2016-02-25T01:00:30.060Z,4.86
2016-02-25T01:01:29.970Z,4.86
2016-02-25T01:02:29.925Z,4.89
2016-02-25T01:03:30.006Z,4.87
2016-02-25T01:04:29.821Z,4.86
2016-02-25T01:05:29.745Z,4.87
2016-02-25T01:06:29.701Z,4.87
2016-02-25T01:07:29.673Z,4.82
2016-02-25T01:08:29.582Z,4.77
2016-02-25T01:09:29.506Z,4.82
2016-02-25T01:10:29.478Z,4.75
2016-02-25T01:11:29.403Z,4.82
2016-02-25T01:12:29.358Z,4.78
2016-02-25T01:13:29.314Z,4.86
2016-02-25T01:14:29.255Z,4.73
2016-02-25T01:15:29.178Z,4.75
2016-02-25T01:16:29.119Z,4.86
2016-02-25T01:17:29.044Z,4.77
2016-02-25T01:18:28.999Z,4.78
2016-02-25T01:19:28.908Z,4.86
2016-02-25T01:20:28.896Z,4.84
2016-02-25T01:21:28.836Z,4.74
2016-02-25T01:22:28.838Z,4.8
2016-02-25T01:23:28.716Z,4.78
2016-02-25T01:24:28.641Z,4.84
2016-02-25T01:25:28.596Z,4.82
2016-02-25T01:26:28.552Z,4.68
2016-02-25T01:27:28.524Z,4.7
2016-02-25T01:28:28.433Z,4.89
2016-02-25T01:29:28.357Z,4.86
2016-02-25T01:30:28.344Z,4.78
2016-02-25T01:31:28.378Z,4.75
2016-02-25T01:32:28.224Z,4.78
2016-02-25T01:33:27.977Z,4.74
2016-02-25T01:34:28.199Z,4.84
2016-02-25T01:35:28.029Z,4.8
2016-02-25T01:36:28.017Z,4.77
2016-02-25T01:37:27.926Z,4.82
2016-02-25T01:38:27.865Z,4.86
2016-02-25T01:39:27.775Z,4.78
2016-02-25T01:40:27.762Z,4.8
2016-02-25T01:41:27.718Z,4.86
2016-02-25T01:42:27.626Z,4.78
2016-02-25T01:43:27.614Z,4.94
2016-02-25T01:44:27.507Z,4.78
2016-02-25T01:45:27.464Z,4.78
2016-02-25T01:46:27.387Z,4.86
2016-02-25T01:47:27.327Z,4.87
2016-02-25T01:48:27.267Z,4.77
2016-02-25T01:49:27.208Z,4.77
2016-02-25T01:50:27.164Z,4.84
2016-02-25T01:51:27.105Z,4.7
2016-02-25T01:52:27.044Z,4.74
2016-02-25T01:53:26.953Z,4.6
2016-02-25T01:54:26.908Z,4.63
2016-02-25T01:55:26.911Z,4.67
2016-02-25T01:56:26.789Z,4.74
2016-02-25T01:57:26.854Z,4.73
2016-02-25T01:58:26.701Z,4.6
2016-02-25T01:59:26.672Z,4.6
2016-02-25T02:00:26.643Z,4.62
2016-02-25T02:01:26.568Z,4.63
2016-02-25T02:02:26.493Z,4.62
2016-02-25T02:03:26.418Z,4.66
2016-02-25T02:04:26.374Z,4.58
2016-02-25T02:05:26.282Z,4.67
2016-02-25T02:06:26.282Z,4.63
2016-02-25T02:07:26.408Z,4.7
2016-02-25T02:08:26.095Z,4.73
2016-02-25T02:09:26.041Z,4.62
2016-02-25T02:10:26.115Z,4.7
2016-02-25T02:11:26.055Z,4.74
2016-02-25T02:12:25.902Z,4.68
2016-02-25T02:13:25.810Z,4.7
2016-02-25T02:14:25.766Z,4.71
2016-02-25T02:15:25.707Z,4.7
2016-02-25T02:16:25.663Z,4.66
2016-02-25T02:17:25.571Z,4.63
2016-02-25T02:18:25.543Z,4.63
2016-02-25T02:19:25.499Z,4.71
2016-02-25T02:20:25.408Z,4.63
2016-02-25T02:21:25.395Z,4.66
2016-02-25T02:22:25.460Z,4.66
2016-02-25T02:23:25.243Z,4.66
2016-02-25T02:24:25.168Z,4.59
2016-02-25T02:25:25.437Z,4.67
2016-02-25T02:26:25.204Z,4.66
2016-02-25T02:27:25.051Z,4.44
2016-02-25T02:28:25.007Z,4.6
2016-02-25T02:29:24.901Z,4.62
2016-02-25T02:30:24.918Z,4.63
2016-02-25T02:31:24.796Z,4.58
2016-02-25T02:32:24.721Z,4.63
2016-02-25T02:33:24.724Z,4.6
2016-02-25T02:34:24.586Z,4.63
2016-02-25T02:35:24.417Z,4.62
2016-02-25T02:36:24.498Z,4.59
2016-02-25T02:37:24.500Z,4.62
2016-02-25T02:38:24.378Z,4.63
2016-02-25T02:39:24.334Z,4.67
2016-02-25T02:40:24.258Z,4.58
2016-02-25T02:41:24.198Z,4.58
2016-02-25T02:42:24.170Z,4.63
2016-02-25T02:43:23.311Z,4.62
2016-02-25T02:44:24.097Z,4.63
2016-02-25T02:45:24.019Z,4.67
2016-02-25T02:46:23.896Z,4.66
2016-02-25T02:47:23.853Z,4.73
2016-02-25T02:48:23.793Z,4.6
2016-02-25T02:49:23.717Z,4.66
2016-02-25T02:50:23.704Z,4.59
2016-02-25T02:51:23.613Z,4.6
2016-02-25T02:52:23.725Z,4.56
2016-02-25T02:53:22.774Z,4.45
2016-02-25T02:54:23.449Z,4.49
2016-02-25T02:55:23.358Z,4.53
2016-02-25T02:56:23.393Z,4.56
2016-02-25T02:57:23.317Z,4.56
2016-02-25T02:58:23.195Z,4.55
2016-02-25T02:59:23.150Z,4.63
2016-02-25T03:00:23.090Z,4.63
2016-02-25T03:01:23.030Z,4.68
2016-02-25T03:02:23.001Z,4.62
2016-02-25T03:03:22.958Z,4.67
2016-02-25T03:04:22.898Z,4.63
2016-02-25T03:05:22.780Z,4.63
2016-02-25T03:06:22.721Z,4.63
2016-02-25T03:07:22.770Z,4.56
2016-02-25T03:08:22.663Z,4.56
2016-02-25T03:09:22.573Z,4.56
2016-02-25T03:10:22.544Z,4.6
2016-02-25T03:11:22.531Z,4.56
2016-02-25T03:12:22.409Z,4.6
2016-02-25T03:13:22.349Z,4.59
2016-02-25T03:14:22.352Z,4.53
2016-02-25T03:15:22.213Z,4.48
2016-02-25T03:16:22.170Z,4.48
2016-02-25T03:17:22.094Z,4.52
2016-02-25T03:18:22.066Z,4.56
2016-02-25T03:19:22.005Z,4.58
2016-02-25T03:20:21.946Z,4.5
2016-02-25T03:21:21.886Z,4.5
2016-02-25T03:22:21.826Z,4.5
2016-02-25T03:23:21.783Z,4.49
2016-02-25T03:24:21.691Z,4.53
2016-02-25T03:25:21.491Z,4.52
2016-02-25T03:26:21.603Z,4.53
2016-02-25T03:27:21.574Z,4.48
2016-02-25T03:28:21.529Z,4.44
2016-02-25T03:29:21.423Z,4.58
2016-02-25T03:30:21.441Z,4.44
2016-02-25T03:31:21.304Z,4.59
2016-02-25T03:32:21.244Z,4.58
2016-02-25T03:33:21.168Z,4.59
2016-02-25T03:34:21.093Z,4.53
2016-02-25T03:35:21.049Z,4.44
2016-02-25T03:36:20.989Z,4.53
2016-02-25T03:37:21.008Z,4.5
2016-02-25T03:38:20.901Z,4.55
2016-02-25T03:39:20.809Z,4.48
2016-02-25T03:40:20.780Z,4.58
2016-02-25T03:41:20.799Z,4.63
2016-02-25T03:42:20.661Z,4.5
2016-02-25T03:43:20.602Z,4.53
2016-02-25T03:44:20.542Z,4.45
2016-02-25T03:45:20.498Z,4.53
2016-02-25T03:46:20.407Z,4.49
2016-02-25T03:47:20.752Z,4.52
2016-02-25T03:48:20.302Z,4.45
2016-02-25T03:49:20.290Z,4.44
2016-02-25T03:50:20.214Z,4.52
2016-02-25T03:51:20.138Z,4.48
2016-02-25T03:52:20.063Z,4.52
2016-02-25T03:53:20.050Z,4.52
2016-02-25T03:54:19.975Z,4.44
2016-02-25T03:55:19.899Z,4.48
2016-02-25T03:56:19.840Z,4.35
2016-02-25T03:57:19.826Z,4.44
2016-02-25T03:58:19.720Z,4.44
2016-02-25T03:59:19.692Z,4.44
2016-02-25T04:00:19.678Z,4.49
2016-02-25T04:01:19.572Z,4.44
2016-02-25T04:02:19.481Z,4.53
2016-02-25T04:03:19.437Z,4.42
2016-02-25T04:04:19.376Z,4.44
2016-02-25T04:05:19.351Z,4.37
2016-02-25T04:06:19.306Z,4.49
2016-02-25T04:07:19.232Z,4.56
2016-02-25T04:08:19.219Z,4.42
2016-02-25T04:09:19.080Z,4.41
2016-02-25T04:10:19.037Z,4.38
2016-02-25T04:11:18.977Z,4.41
2016-02-25T04:12:18.917Z,4.44
2016-02-25T04:13:18.857Z,4.45
2016-02-25T04:14:18.797Z,4.49
2016-02-25T04:15:18.753Z,4.4
2016-02-25T04:16:18.694Z,4.42
2016-02-25T04:17:18.836Z,4.52
2016-02-25T04:18:18.621Z,4.38
2016-02-25T04:19:18.530Z,4.42
2016-02-25T04:20:18.502Z,4.42
2016-02-25T04:21:18.379Z,4.4
2016-02-25T04:22:18.349Z,4.42
2016-02-25T04:23:18.305Z,4.5
2016-02-25T04:24:18.262Z,4.49
2016-02-25T04:25:18.170Z,4.44
2016-02-25T04:26:18.095Z,4.49
2016-02-25T04:27:18.083Z,4.42
2016-02-25T04:28:18.054Z,4.4
2016-02-25T04:29:17.915Z,4.42
2016-02-25T04:30:17.887Z,4.49
2016-02-25T04:31:17.827Z,4.44
2016-02-25T04:32:17.767Z,4.3
2016-02-25T04:33:17.770Z,4.37
2016-02-25T04:34:17.664Z,4.5
2016-02-25T04:35:17.603Z,4.42
2016-02-25T04:36:17.606Z,4.32
2016-02-25T04:37:17.468Z,4.38
2016-02-25T04:38:17.456Z,4.44
2016-02-25T04:39:17.427Z,4.31
2016-02-25T04:40:17.273Z,4.37
2016-02-25T04:41:17.214Z,4.38
2016-02-25T04:42:17.170Z,4.41
2016-02-25T04:43:17.109Z,4.42
2016-02-25T04:44:17.049Z,4.32
2016-02-25T04:45:17.006Z,4.35
2016-02-25T04:46:16.961Z,4.32
2016-02-25T04:47:16.886Z,4.49
2016-02-25T04:48:16.889Z,4.35
2016-02-25T04:49:16.782Z,4.26
2016-02-25T04:50:16.691Z,4.35
2016-02-25T04:51:16.663Z,4.32
2016-02-25T04:52:16.650Z,4.38
2016-02-25T04:53:16.621Z,4.41
2016-02-25T04:54:16.467Z,4.38
2016-02-25T04:55:16.423Z,4.35
2016-02-25T04:56:16.363Z,4.4
2016-02-25T04:57:16.287Z,4.37
2016-02-25T04:58:16.243Z,4.34
2016-02-25T04:59:16.262Z,4.41
2016-02-25T05:00:16.077Z,4.35
2016-02-25T05:01:16.065Z,4.31
2016-02-25T05:02:16.004Z,4.26
2016-02-25T05:03:15.929Z,3.95
2016-02-25T05:04:15.870Z,4.13
2016-02-25T05:05:15.903Z,4.16
2016-02-25T05:06:15.828Z,4.28
2016-02-25T05:07:15.721Z,4.31
2016-02-25T05:08:15.709Z,4.22
2016-02-25T05:09:15.633Z,4.26
2016-02-25T05:10:15.557Z,4.26
2016-02-25T05:11:15.498Z,4.24
2016-02-25T05:12:15.453Z,4.26
2016-02-25T05:13:15.394Z,4.22
2016-02-25T05:14:15.349Z,4.22
2016-02-25T05:15:15.290Z,4.17
2016-02-25T05:16:15.230Z,4.2
2016-02-25T05:17:15.123Z,4.16
2016-02-25T05:18:15.078Z,4.16
2016-02-25T05:19:15.097Z,4.24
2016-02-25T05:20:14.834Z,4.17
2016-02-25T05:21:14.900Z,4.19
2016-02-25T05:22:14.839Z,4.17
2016-02-25T05:23:14.842Z,4.02
2016-02-25T05:24:14.720Z,4.17
2016-02-25T05:25:14.676Z,4.2
2016-02-25T05:26:14.616Z,4.17
2016-02-25T05:27:14.541Z,4.24
2016-02-25T05:28:14.512Z,4.19
2016-02-25T05:29:14.452Z,4.3
2016-02-25T05:30:14.361Z,4.22
2016-02-25T05:31:14.380Z,4.23
2016-02-25T05:32:14.273Z,4.2
2016-02-25T05:33:14.181Z,4.24
2016-02-25T05:34:14.216Z,4.12
2016-02-25T05:35:14.078Z,4.12
2016-02-25T05:36:14.034Z,4.14
2016-02-25T05:37:13.974Z,4.1
2016-02-25T05:38:14.476Z,4.19
2016-02-25T05:39:13.901Z,4.16
2016-02-25T05:40:13.826Z,4.19
2016-02-25T05:41:13.798Z,4.14
2016-02-25T05:42:13.706Z,4.19
2016-02-25T05:43:13.630Z,4.19
2016-02-25T05:44:13.633Z,4.04
2016-02-25T05:45:13.511Z,4.19
2016-02-25T05:46:13.436Z,4.05
2016-02-25T05:47:13.406Z,4.08
2016-02-25T05:48:13.316Z,4.1
2016-02-25T05:49:13.318Z,4.13
2016-02-25T05:50:13.211Z,4.22
2016-02-25T05:51:13.136Z,4.1
2016-02-25T05:52:13.077Z,4.19
2016-02-25T05:53:13.032Z,4.22
2016-02-25T05:54:13.020Z,4.06
2016-02-25T05:55:12.896Z,4.13
2016-02-25T05:56:12.869Z,4.06
2016-02-25T05:57:12.824Z,4.06
2016-02-25T05:58:12.765Z,4.02
2016-02-25T05:59:12.689Z,4.13
2016-02-25T06:00:12.630Z,4.12
2016-02-25T06:01:12.554Z,4.08
2016-02-25T06:02:12.478Z,4.05
2016-02-25T06:03:12.418Z,4.13
2016-02-25T06:04:12.390Z,4.06
2016-02-25T06:05:12.284Z,3.87
2016-02-25T06:06:12.302Z,3.94
2016-02-25T06:07:12.179Z,3.96
2016-02-25T06:08:12.135Z,3.94
2016-02-25T06:09:12.122Z,3.95
2016-02-25T06:10:12.048Z,3.95
2016-02-25T06:11:12.003Z,3.92
2016-02-25T06:12:13.662Z,3.87
2016-02-25T06:13:11.867Z,3.66
2016-02-25T06:14:11.792Z,3.81
2016-02-25T06:15:11.732Z,3.92
2016-02-25T06:16:11.703Z,3.7
2016-02-25T06:17:11.597Z,3.81
2016-02-25T06:18:11.569Z,3.87
2016-02-25T06:19:11.509Z,3.92
2016-02-25T06:20:11.417Z,4.01
2016-02-25T06:21:11.389Z,4.04
2016-02-25T06:22:11.330Z,4.01
2016-02-25T06:23:11.363Z,4.05
2016-02-25T06:24:11.194Z,3.99
2016-02-25T06:25:11.150Z,4.06
2016-02-25T06:26:11.183Z,3.81
2016-02-25T06:27:11.061Z,3.84
2016-02-25T06:28:11.080Z,3.87
2016-02-25T06:29:10.895Z,3.95
2016-02-25T06:30:10.851Z,3.74
2016-02-25T06:31:10.807Z,3.74
2016-02-25T06:32:10.715Z,3.77
2016-02-25T06:33:10.671Z,3.8
2016-02-25T06:34:10.612Z,3.84
2016-02-25T06:35:10.598Z,3.87
2016-02-25T06:36:10.492Z,3.86
2016-02-25T06:37:10.448Z,3.76
2016-02-25T06:38:10.387Z,3.86
2016-02-25T06:39:10.421Z,3.6
2016-02-25T06:40:10.268Z,3.55
2016-02-25T06:41:10.209Z,3.63
2016-02-25T06:42:10.179Z,3.74
2016-02-25T06:43:10.073Z,3.66
2016-02-25T06:44:10.028Z,3.68
2016-02-25T06:45:09.985Z,3.78
2016-02-25T06:46:09.956Z,3.83
2016-02-25T06:47:09.881Z,3.84
2016-02-25T06:48:09.821Z,3.83
2016-02-25T06:49:09.777Z,3.87
2016-02-25T06:50:09.670Z,3.87
2016-02-25T06:51:09.657Z,3.86
2016-02-25T06:52:09.661Z,3.65
2016-02-25T06:53:09.569Z,3.66
2016-02-25T06:54:09.494Z,3.77
2016-02-25T06:55:09.403Z,3.63
2016-02-25T06:56:09.295Z,3.69
2016-02-25T06:57:09.267Z,3.74
2016-02-25T06:58:09.786Z,3.83
2016-02-25T06:59:09.174Z,3.86
2016-02-25T07:00:09.068Z,3.81
2016-02-25T07:01:09.617Z,3.84
2016-02-25T07:02:08.964Z,3.92
2016-02-25T07:03:08.874Z,3.86
2016-02-25T07:04:08.756Z,3.88
2016-02-25T07:05:08.927Z,3.94
2016-02-25T07:06:08.790Z,3.94
2016-02-25T07:07:08.662Z,4.02
2016-02-25T07:08:08.645Z,3.96
2016-02-25T07:09:08.502Z,4.04
2016-02-25T07:10:08.612Z,4.04
2016-02-25T07:11:08.363Z,4.06
2016-02-25T07:12:08.349Z,4.04
2016-02-25T07:13:08.240Z,3.94
2016-02-25T07:14:08.194Z,4.02
2016-02-25T07:15:08.150Z,3.96
2016-02-25T07:16:08.072Z,3.99
2016-02-25T07:17:08.122Z,4.12
2016-02-25T07:18:07.998Z,4.1
2016-02-25T07:19:08.142Z,4.13
2016-02-25T07:20:07.863Z,4.06
2016-02-25T07:21:07.742Z,4.1
2016-02-25T07:22:07.791Z,4.17
2016-02-25T07:23:07.637Z,4.12
2016-02-25T07:24:07.593Z,4.14
2016-02-25T07:25:07.579Z,4.01
2016-02-25T07:26:07.472Z,4.06
2016-02-25T07:27:07.413Z,4.13
2016-02-25T07:28:07.338Z,4.1
2016-02-25T07:29:07.277Z,4.08
2016-02-25T07:30:07.202Z,4.13
2016-02-25T07:31:07.190Z,4.12
2016-02-25T07:32:07.161Z,4.1
2016-02-25T07:33:07.117Z,4.05
2016-02-25T07:34:07.026Z,4.12
2016-02-25T07:35:06.966Z,4.06
2016-02-25T07:36:06.937Z,4.08
2016-02-25T07:37:06.815Z,4.2
2016-02-25T07:38:06.771Z,4.08
2016-02-25T07:39:06.727Z,4.1
2016-02-25T07:40:06.635Z,4.17
2016-02-25T07:41:06.607Z,4.06
2016-02-25T07:42:06.500Z,4.08
2016-02-25T07:43:06.331Z,4.05
2016-02-25T07:44:06.412Z,4.13
2016-02-25T07:45:06.415Z,4.13
2016-02-25T07:46:06.292Z,4.23
2016-02-25T07:47:06.217Z,4.24
2016-02-25T07:48:06.157Z,4.26
2016-02-25T07:49:06.128Z,4.19
2016-02-25T07:50:06.522Z,4.28
2016-02-25T07:51:06.086Z,4.26
2016-02-25T07:52:06.012Z,4.41
2016-02-25T07:53:05.874Z,4.38
2016-02-25T07:54:05.845Z,4.37
2016-02-25T07:55:05.894Z,4.23
2016-02-25T07:56:05.850Z,4.3
2016-02-25T07:57:05.666Z,4.28
2016-02-25T07:58:05.637Z,4.41
2016-02-25T07:59:05.766Z,4.4
2016-02-25T08:00:05.658Z,4.37
2016-02-25T08:01:05.505Z,4.34
2016-02-25T08:02:05.429Z,4.42
2016-02-25T08:03:05.463Z,4.48
2016-02-25T08:04:05.497Z,4.38
2016-02-25T08:05:05.219Z,4.37
2016-02-25T08:06:05.174Z,4.24
2016-02-25T08:07:05.115Z,4.41
2016-02-25T08:08:05.101Z,4.31
2016-02-25T08:09:04.948Z,4.24
2016-02-25T08:10:04.920Z,4.26
2016-02-25T08:11:04.860Z,4.28
2016-02-25T08:12:04.800Z,4.32
2016-02-25T08:13:04.787Z,4.4
2016-02-25T08:14:04.727Z,4.4
2016-02-25T08:15:04.604Z,4.35
2016-02-25T08:16:04.592Z,4.38
2016-02-25T08:17:04.578Z,4.52
2016-02-25T08:18:04.472Z,4.44
2016-02-25T08:19:04.412Z,4.45
2016-02-25T08:20:04.321Z,4.45
2016-02-25T08:21:04.356Z,4.38
2016-02-25T08:22:04.248Z,4.2
2016-02-25T08:23:04.501Z,4.34
2016-02-25T08:24:04.066Z,4.4
2016-02-25T08:25:04.100Z,4.42
2016-02-25T08:26:03.931Z,4.31
2016-02-25T08:27:03.934Z,4.42
2016-02-25T08:28:03.875Z,4.37
2016-02-25T08:29:03.814Z,4.44
2016-02-25T08:30:03.927Z,4.35
2016-02-25T08:31:03.788Z,4.4
2016-02-25T08:32:03.588Z,4.44
2016-02-25T08:33:03.574Z,4.5
2016-02-25T08:34:03.515Z,4.41
2016-02-25T08:35:03.565Z,4.48
2016-02-25T08:36:03.427Z,4.5
2016-02-25T08:37:03.461Z,4.49
2016-02-25T08:38:03.605Z,4.53
2016-02-25T08:39:03.263Z,4.55
2016-02-25T08:40:03.188Z,4.6
2016-02-25T08:41:03.082Z,4.6
2016-02-25T08:42:03.177Z,4.66
2016-02-25T08:43:03.008Z,4.7
2016-02-25T08:44:03.012Z,4.66
2016-02-25T08:45:02.951Z,4.67
2016-02-25T08:46:02.813Z,4.67
2016-02-25T08:47:02.832Z,4.71
2016-02-25T08:48:02.850Z,4.75
2016-02-25T08:49:02.696Z,4.6
2016-02-25T08:50:02.558Z,4.67
2016-02-25T08:51:02.576Z,4.67
2016-02-25T08:52:02.658Z,4.73
2016-02-25T08:53:02.410Z,4.75
2016-02-25T08:54:02.444Z,4.77
2016-02-25T08:55:02.291Z,4.77
2016-02-25T08:56:02.247Z,4.75
2016-02-25T08:57:02.281Z,4.62
2016-02-25T08:58:02.111Z,4.7
2016-02-25T08:59:02.067Z,4.8
2016-02-25T09:00:01.975Z,4.87
2016-02-25T09:01:01.947Z,4.87
2016-02-25T09:02:01.888Z,4.86
2016-02-25T09:03:01.858Z,4.78
2016-02-25T09:04:01.830Z,4.86
2016-02-25T09:05:02.005Z,4.9
2016-02-25T09:06:01.649Z,4.94
2016-02-25T09:07:01.636Z,4.71
2016-02-25T09:08:01.607Z,4.75
2016-02-25T09:09:01.499Z,4.92
2016-02-25T09:10:01.502Z,4.8
2016-02-25T09:11:01.365Z,4.97
2016-02-25T09:12:01.337Z,4.96
2016-02-25T09:13:01.229Z,4.96
2016-02-25T09:14:01.201Z,5
2016-02-25T09:15:01.125Z,5
2016-02-25T09:16:01.050Z,4.94
2016-02-25T09:17:01.021Z,4.96
2016-02-25T09:18:00.946Z,4.96
2016-02-25T09:19:00.949Z,4.99
2016-02-25T09:20:00.827Z,4.94
2016-02-25T09:21:00.845Z,4.87
2016-02-25T09:22:00.801Z,4.89
2016-02-25T09:23:00.554Z,4.96
2016-02-25T09:24:00.603Z,5.05
2016-02-25T09:25:00.528Z,5.14
2016-02-25T09:26:00.515Z,5.07
2016-02-25T09:27:00.439Z,5.07
2016-02-25T09:28:00.364Z,4.89
2016-02-25T09:29:00.398Z,4.97
2016-02-25T09:30:00.307Z,5.07
2016-02-25T09:31:00.184Z,4.94
2016-02-25T09:32:00.156Z,4.9
2016-02-25T09:33:00.097Z,5.04
2016-02-25T09:34:00.052Z,5
2016-02-25T09:35:00.009Z,5.07
2016-02-25T09:36:00.042Z,5.14
2016-02-25T09:36:59.858Z,5.11
2016-02-25T09:37:59.797Z,5.2
2016-02-25T09:38:59.738Z,5.11
2016-02-25T09:39:59.708Z,5.11
2016-02-25T09:40:59.618Z,4.97
2016-02-25T09:41:59.621Z,5.11
2016-02-25T09:42:59.483Z,5.07
2016-02-25T09:43:59.423Z,5.08
2016-02-25T09:44:59.441Z,5.11
2016-02-25T09:45:59.382Z,5.2
2016-02-25T09:46:59.353Z,5.2
2016-02-25T09:47:59.184Z,5.11
2016-02-25T09:48:59.155Z,5.25
2016-02-25T09:49:59.127Z,5.18
2016-02-25T09:50:59.051Z,5.2
2016-02-25T09:51:59.004Z,5.23
2016-02-25T09:52:58.882Z,5.17
2016-02-25T09:53:58.869Z,5.28
2016-02-25T09:54:58.826Z,5.33
2016-02-25T09:55:58.828Z,5.26
2016-02-25T09:56:58.720Z,5.23
2016-02-25T09:57:58.646Z,5.3
2016-02-25T09:58:58.664Z,5.29
2016-02-25T09:59:58.526Z,5.2
2016-02-25T10:00:58.466Z,5.3
2016-02-25T10:01:58.453Z,5.21
2016-02-25T10:02:58.534Z,5.38
2016-02-25T10:03:58.287Z,5.35
2016-02-25T10:04:58.273Z,5.29
2016-02-25T10:05:58.167Z,5
2016-02-25T10:06:58.170Z,5.15
2016-02-25T10:07:58.047Z,5.11
2016-02-25T10:08:58.034Z,5.18
2016-02-25T10:09:57.959Z,4.96
2016-02-25T10:10:57.914Z,5.1
2016-02-25T10:11:57.136Z,5.23
2016-02-25T10:12:57.780Z,5.17
2016-02-25T10:13:57.797Z,5.18
2016-02-25T10:14:57.488Z,5.18
2016-02-25T10:15:57.710Z,5.17
2016-02-25T10:16:57.634Z,5.11
2016-02-25T10:17:57.480Z,5.15
2016-02-25T10:18:57.436Z,5.2
2016-02-25T10:19:57.361Z,5.12
2016-02-25T10:20:57.441Z,5.17
2016-02-25T10:21:57.226Z,5.2
2016-02-25T10:22:57.197Z,5.11
2016-02-25T10:23:57.184Z,5.18
2016-02-25T10:24:57.109Z,5.14
2016-02-25T10:25:57.018Z,5.11
2016-02-25T10:26:56.973Z,4.94
2016-02-25T10:27:56.898Z,5.08
2016-02-25T10:28:56.823Z,5.21
2016-02-25T10:29:56.809Z,5.18
2016-02-25T10:30:56.750Z,5.2
2016-02-25T10:31:56.690Z,5.2
2016-02-25T10:32:56.662Z,5.14
2016-02-25T10:33:56.570Z,5.2
2016-02-25T10:34:56.511Z,5.04
2016-02-25T10:35:56.701Z,5.08
2016-02-25T10:36:56.422Z,5.18
2016-02-25T10:37:56.300Z,5.14
2016-02-25T10:38:56.255Z,5.15
2016-02-25T10:39:56.242Z,5.04
2016-02-25T10:40:56.136Z,5.02
2016-02-25T10:41:56.077Z,4.97
2016-02-25T10:42:56.033Z,5.08
2016-02-25T10:43:55.942Z,5.11
2016-02-25T10:44:55.944Z,5.11
2016-02-25T10:45:55.869Z,5.15
2016-02-25T10:46:55.825Z,5.17
2016-02-25T10:47:55.733Z,5.23
2016-02-25T10:48:55.689Z,5.21
2016-02-25T10:49:55.629Z,5.2
2016-02-25T10:50:55.522Z,5.2
2016-02-25T10:51:55.494Z,5.21
2016-02-25T10:52:55.466Z,5.08
2016-02-25T10:53:55.359Z,5.08
2016-02-25T10:54:55.299Z,5.04
2016-02-25T10:55:55.270Z,5.21
2016-02-25T10:56:55.242Z,5.17
2016-02-25T10:57:55.245Z,4.89
2016-02-25T10:58:55.059Z,4.92
2016-02-25T10:59:55.141Z,5.15
2016-02-25T11:00:54.971Z,5.21
2016-02-25T11:01:54.896Z,5.2
2016-02-25T11:02:54.868Z,5.28
2016-02-25T11:03:54.823Z,5.32
2016-02-25T11:04:54.748Z,5.43
2016-02-25T11:05:54.735Z,5.39
2016-02-25T11:06:54.645Z,5.35
2016-02-25T11:07:54.569Z,5.36
2016-02-25T11:08:54.509Z,5.35
2016-02-25T11:09:54.465Z,5.43
2016-02-25T11:10:54.390Z,5.38
2016-02-25T11:11:54.362Z,5.38
2016-02-25T11:12:54.364Z,5.35
2016-02-25T11:13:54.335Z,5.23
2016-02-25T11:14:54.276Z,5.26
2016-02-25T11:15:54.106Z,5.33
2016-02-25T11:16:54.093Z,5.3
2016-02-25T11:17:53.987Z,5.28
2016-02-25T11:18:53.989Z,5.33
2016-02-25T11:19:53.883Z,5.33
2016-02-25T11:20:53.823Z,5.3
2016-02-25T11:21:53.889Z,5.25
2016-02-25T11:22:53.703Z,5.23
2016-02-25T11:23:53.660Z,5.33
2016-02-25T11:24:53.600Z,5.3
2016-02-25T11:25:53.586Z,5.47
2016-02-25T11:26:53.496Z,5.44
2016-02-25T11:27:53.420Z,5.43
2016-02-25T11:28:53.408Z,5.53
2016-02-25T11:29:53.332Z,5.44
2016-02-25T11:30:53.256Z,5.54
2016-02-25T11:31:53.196Z,5.46
2016-02-25T11:32:53.433Z,5.35
2016-02-25T11:33:53.108Z,5.38
2016-02-25T11:34:53.017Z,5.12
2016-02-25T11:35:52.832Z,5.32
2016-02-25T11:36:52.961Z,5.39
2016-02-25T11:37:52.885Z,5.41
2016-02-25T11:38:52.825Z,5.41
2016-02-25T11:39:52.781Z,5.48
2016-02-25T11:40:52.721Z,5.44
2016-02-25T11:41:52.661Z,5.41
2016-02-25T11:42:52.758Z,5.43
2016-02-25T11:43:52.729Z,5.41
2016-02-25T11:44:52.560Z,5.5
2016-02-25T11:45:52.657Z,5.57
2016-02-25T11:46:52.362Z,5.51
2016-02-25T11:47:52.271Z,5.51
2016-02-25T11:48:52.383Z,5.51
2016-02-25T11:49:52.151Z,5.5
2016-02-25T11:50:52.123Z,5.56
2016-02-25T11:51:52.095Z,5.62
2016-02-25T11:52:52.112Z,5.56
2016-02-25T11:53:52.131Z,5.48
2016-02-25T11:54:51.867Z,5.41
2016-02-25T11:55:51.870Z,5.43
2016-02-25T11:57:51.673Z,5.56
2016-02-25T11:58:51.723Z,5.61
2016-02-25T11:59:51.631Z,5.66
2016-02-25T12:00:51.619Z,5.62
2016-02-25T12:01:51.465Z,5.59
2016-02-25T12:02:51.514Z,5.65
2016-02-25T12:03:50.627Z,5.69
2016-02-25T12:04:51.301Z,5.65
2016-02-25T12:05:51.242Z,5.62
2016-02-25T12:06:51.182Z,5.59
2016-02-25T12:07:51.153Z,5.64
2016-02-25T12:08:51.063Z,5.65
2016-02-25T12:09:51.002Z,5.61
2016-02-25T12:10:50.958Z,5.69
2016-02-25T12:11:50.946Z,5.73
2016-02-25T12:12:50.855Z,5.64
2016-02-25T12:13:50.826Z,5.75
2016-02-25T12:14:50.735Z,5.68
2016-02-25T12:15:50.691Z,5.72
2016-02-25T12:16:50.615Z,5.59
2016-02-25T12:17:50.555Z,5.65
2016-02-25T12:18:50.496Z,5.72
2016-02-25T12:19:50.482Z,5.71
2016-02-25T12:20:50.391Z,5.82
2016-02-25T12:21:50.347Z,5.71
2016-02-25T12:22:50.287Z,5.75
2016-02-25T12:23:50.212Z,5.75
2016-02-25T12:24:50.276Z,5.75
2016-02-25T12:25:49.936Z,5.73
2016-02-25T12:26:50.063Z,5.59
2016-02-25T12:27:50.003Z,5.59
2016-02-25T12:28:49.928Z,5.44
2016-02-25T12:29:49.853Z,5.57
2016-02-25T12:30:49.825Z,5.64
2016-02-25T12:31:49.765Z,5.68
2016-02-25T12:32:49.720Z,5.8
2016-02-25T12:33:49.645Z,5.8
2016-02-25T12:34:49.600Z,5.64
2016-02-25T12:35:49.525Z,5.73
2016-02-25T12:36:49.497Z,5.76
2016-02-25T12:37:49.437Z,5.8
2016-02-25T12:38:49.378Z,5.84
2016-02-25T12:39:49.317Z,5.82
2016-02-25T12:40:49.242Z,5.8
2016-02-25T12:41:49.291Z,5.75
2016-02-25T12:42:49.185Z,5.69
2016-02-25T12:43:49.219Z,5.66
2016-02-25T12:44:49.049Z,5.44
2016-02-25T12:45:48.958Z,5.57
2016-02-25T12:46:48.898Z,5.41
2016-02-25T12:47:48.932Z,5.47
2016-02-25T12:48:48.857Z,5.53
2016-02-25T12:49:48.735Z,5.53
2016-02-25T12:50:48.660Z,5.62
2016-02-25T12:51:48.631Z,5.68
2016-02-25T12:52:48.556Z,5.64
2016-02-25T12:53:48.559Z,5.57
2016-02-25T12:54:48.452Z,5.64
2016-02-25T12:55:48.407Z,5.68
2016-02-25T12:56:48.332Z,5.64
2016-02-25T12:57:48.241Z,5.79
2016-02-25T12:58:48.181Z,5.56
2016-02-25T12:59:48.184Z,5.56
2016-02-25T13:00:48.093Z,5.73
2016-02-25T13:01:48.017Z,5.43
2016-02-25T13:02:47.989Z,5.3
2016-02-25T13:03:47.945Z,5.38
2016-02-25T13:04:47.931Z,5.53
2016-02-25T13:05:47.778Z,5.56
2016-02-25T13:06:47.812Z,5.8
2016-02-25T13:07:47.752Z,5.69
2016-02-25T13:08:47.645Z,5.66
2016-02-25T13:09:47.711Z,5.8
2016-02-25T13:10:47.604Z,5.76
2016-02-25T13:11:47.483Z,5.73
2016-02-25T13:12:47.375Z,5.76
2016-02-25T13:13:47.346Z,5.84
2016-02-25T13:14:47.678Z,5.64
2016-02-25T13:15:47.227Z,5.72
2016-02-25T13:16:47.277Z,5.68
2016-02-25T13:17:47.092Z,5.8
2016-02-25T13:18:47.016Z,5.76
2016-02-25T13:19:47.004Z,5.79
2016-02-25T13:20:46.944Z,5.83
2016-02-25T13:21:46.899Z,5.75
2016-02-25T13:22:46.855Z,5.87